Latest Weather Observations for Blackwater Airport

IDQ60801

Issued at 4:02 pm EST Thursday 17 August 2017 (issued every 30 minutes, with the page automatically refreshed every 10 minutes)

About weather observations | Map of weather stations | Latest weather observations for QLD | Other Formats
Station Details ID: 035134 Name: BLACKWATER AIRPORT Lat: -23.60 Lon: 148.81 Height: 192.95 m
Data from the previous 72 hours. | See also: Recent months at Blackwater Airport
Date/Time
EST
Temp
°C
App
Temp
°C
Dew
Point
°C
Rel
Hum
%
Delta-T
°C
Wind Press
QNH
hPa
Press
MSL
hPa
Rain since
9am
mm
Dir  Spd
km/h
Gust
km/h
Spd
kts
Gust
kts
17/04:00pm 32.6 28.8 7.4 21 14.0 WSW 17 24 9 13 1011.6 1011.2 0.0
17/03:30pm 32.3 29.8 9.8 25 12.9 NW 13 22 7 12 1011.6 1011.2 0.0
17/03:00pm 32.5 29.9 9.3 24 13.2 NNW 13 24 7 13 1011.8 1011.4 0.0
17/02:30pm 31.9 29.5 10.0 26 12.6 NW 13 22 7 12 1012.2 1011.8 0.0
17/02:00pm 30.3 28.2 11.3 31 11.1 NW 13 20 7 11 1012.6 1012.2 0.0
17/01:30pm 30.6 28.9 12.5 33 10.8 WNW 13 22 7 12 1013.2 1012.8 0.0
17/01:00pm 29.9 28.3 12.8 35 10.2 NNW 13 22 7 12 1013.6 1013.2 0.0
17/12:30pm 28.6 26.5 12.5 37 9.5 NW 15 22 8 12 1014.4 1013.9 0.0
17/12:00pm 27.3 26.7 13.6 43 8.2 W 9 15 5 8 1014.9 1014.4 0.0
17/11:30am 27.1 25.8 13.8 44 8.0 NNW 13 19 7 10 1015.5 1015.1 0.0
17/11:00am 25.5 25.1 14.0 49 6.8 WNW 9 15 5 8 1016.1 1015.7 0.0
17/10:30am 24.7 25.0 14.5 53 6.1 W 6 13 3 7 1016.6 1016.2 0.0
17/10:00am 23.1 22.8 14.4 58 5.2 WSW 9 19 5 10 1016.9 1016.5 0.0
17/09:30am 21.9 21.9 15.3 66 4.0 SSW 9 19 5 10 1017.1 1016.7 0.0
17/09:00am 20.4 20.4 15.2 72 3.1 WSW 9 13 5 7 1017.1 1016.7 0.0
17/08:30am 18.8 19.1 14.9 78 2.3 NW 7 11 4 6 1017.0 1016.6 0.0
17/08:00am 18.0 18.6 15.8 87 1.3 N 7 11 4 6 1016.9 1016.5 0.0
17/07:30am 16.7 17.4 15.6 93 0.6 NE 6 7 3 4 1016.6 1016.2 0.0
17/07:00am 15.2 15.4 14.6 96 0.3 NE 7 9 4 5 1016.2 1015.8 0.0
17/06:30am 14.6 14.1 13.8 95 0.5 NE 9 11 5 6 1015.9 1015.5 0.0
17/06:00am 14.8 14.4 14.0 95 0.5 NE 9 9 5 5 1015.6 1015.2 0.0
17/05:30am 14.8 14.7 13.8 94 0.6 NE 7 9 4 5 1015.3 1014.9 0.0
17/05:00am 15.0 14.6 14.0 94 0.6 NE 9 11 5 6 1015.0 1014.5 0.0
17/04:30am 14.9 14.4 13.8 93 0.6 NE 9 11 5 6 1014.9 1014.4 0.0
17/04:00am 15.0 14.2 14.0 94 0.6 NE 11 13 6 7 1014.8 1014.3 0.0
17/03:30am 15.1 14.7 14.0 93 0.6 NE 9 13 5 7 1014.8 1014.3 0.0
17/03:00am 15.6 14.6 14.6 94 0.6 NE 13 15 7 8 1014.8 1014.3 0.0
17/02:30am 15.4 14.7 14.3 93 0.6 NE 11 15 6 8 1014.9 1014.4 0.0
17/02:00am 15.3 14.5 14.0 92 0.7 NE 11 15 6 8 1015.0 1014.5 0.0
17/01:30am 15.7 15.2 13.9 89 1.0 NE 9 13 5 7 1015.2 1014.8 0.0
17/01:00am 16.3 15.3 14.5 89 1.0 NE 13 15 7 8 1015.4 1015.0 0.0
17/12:30am 16.9 15.9 14.5 86 1.4 NE 13 17 7 9 1015.4 1015.0 0.0
17/12:00am 17.0 16.0 14.5 85 1.4 NE 13 17 7 9 1015.7 1015.3 0.0
 
Date/Time
EST
Temp
°C
App
Temp
°C
Dew
Point
°C
Rel
Hum
%
Delta-T
°C
Wind Press
QNH
hPa
Press
MSL
hPa
Rain since
9am
mm
Dir  Spd
km/h
Gust
km/h
Spd
kts
Gust
kts
16/11:30pm 16.4 15.1 13.7 84 1.5 NE 13 15 7 8 1015.6 1015.2 0.0
16/11:00pm 16.3 15.2 13.0 81 1.9 NE 11 13 6 7 1015.4 1015.0 0.0
16/10:30pm 16.9 15.4 13.2 79 2.1 NE 13 17 7 9 1015.4 1015.0 0.0
16/10:00pm 17.6 16.4 12.9 74 2.6 NE 11 13 6 7 1015.3 1014.9 0.0
16/09:30pm 19.0 17.6 13.4 70 3.2 ENE 13 15 7 8 1015.2 1014.8 0.0
16/09:00pm 20.2 18.7 14.1 68 3.6 ENE 15 19 8 10 1014.9 1014.4 0.0
16/08:30pm 20.0 18.7 13.7 67 3.6 ENE 13 15 7 8 1014.7 1014.2 0.0
16/08:00pm 20.0 17.9 8.4 47 6.1 NE 9 13 5 7 1014.3 1013.8 0.0
16/07:30pm 21.4 18.7 7.3 40 7.3 NNE 11 17 6 9 1013.8 1013.4 0.0
16/07:00pm 21.7 18.4 6.4 37 7.8 NNE 13 13 7 7 1013.4 1013.0 0.0
16/06:30pm 22.8 19.5 6.6 35 8.4 NNE 13 15 7 8 1013.2 1012.8 0.0
16/06:00pm 24.1 20.8 6.4 32 9.2 NNE 13 15 7 8 1013.1 1012.7 0.0
16/05:30pm 26.9 23.3 6.9 28 10.7 NNE 15 20 8 11 1012.8 1012.4 0.0
16/05:00pm 28.7 25.0 7.9 27 11.4 NNE 17 20 9 11 1012.6 1012.2 0.0
16/04:30pm 29.7 25.4 7.0 24 12.3 NNW 19 28 10 15 1012.4 1012.0 0.0
16/04:00pm 30.1 26.1 6.7 23 12.6 N 17 24 9 13 1012.3 1011.9 0.0
16/03:30pm 30.4 26.2 7.6 24 12.5 N 19 28 10 15 1012.5 1012.1 0.0
16/03:00pm 29.8 25.9 7.1 24 12.3 NNW 17 28 9 15 1012.7 1012.3 0.0
16/02:30pm 30.3 27.1 6.9 23 12.7 N 13 20 7 11 1013.0 1012.6 0.0
16/02:00pm 29.6 25.7 6.9 24 12.3 NNW 17 26 9 14 1013.6 1013.2 0.0
16/01:30pm 29.0 26.0 7.6 26 11.7 N 13 24 7 13 1014.3 1013.8 0.0
16/01:00pm 28.9 25.6 8.0 27 11.5 NNW 15 26 8 14 1014.7 1014.2 0.0
16/12:30pm 27.8 24.6 8.6 30 10.6 NNW 15 26 8 14 1015.4 1015.0 0.0
16/12:00pm 27.6 25.3 10.3 34 9.8 NNW 13 26 7 14 1016.1 1015.7 0.0
16/11:30am 26.2 23.2 9.1 34 9.4 NW 15 26 8 14 1016.8 1016.4 0.0
16/11:00am 25.5 23.3 10.9 40 8.3 NNW 13 20 7 11 1017.4 1017.0 0.0
16/10:30am 24.5 23.0 13.1 49 6.7 NW 13 19 7 10 1017.9 1017.5 0.0
16/10:00am 22.6 21.9 13.1 55 5.5 NW 9 15 5 8 1018.2 1017.8 0.0
16/09:30am 21.2 20.2 13.4 61 4.5 NW 11 17 6 9 1018.5 1018.1 0.0
16/09:00am 20.0 19.7 13.2 65 3.9 NW 7 13 4 7 1018.6 1018.2 0.0
16/08:30am 18.9 18.3 13.5 71 3.1 N 9 15 5 8 1018.4 1018.0 0.0
16/08:00am 18.0 17.2 13.9 77 2.4 N 11 17 6 9 1018.2 1017.8 0.0
16/07:30am 15.6 16.5 12.9 84 1.5 CALM 0 7 0 4 1017.8 1017.4 0.0
16/07:00am 12.4 11.8 10.3 87 1.1 NE 4 7 2 4 1017.5 1017.1 0.0
16/06:30am 13.5 11.5 11.6 88 1.0 ENE 13 17 7 9 1016.8 1016.4 0.0
16/06:00am 13.6 12.5 11.8 89 1.0 NE 9 11 5 6 1016.5 1016.1 0.0
16/05:30am 12.6 11.7 10.7 88 1.0 E 6 9 3 5 1016.1 1015.7 0.0
16/05:00am 11.8 10.1 8.5 80 1.6 ESE 7 7 4 4 1015.8 1015.4 0.0
16/04:30am 12.9 12.4 9.5 80 1.7 NE 2 7 1 4 1015.5 1015.1 0.0
16/04:00am 14.3 12.6 11.3 82 1.6 NE 11 13 6 7 1015.4 1015.0 0.0
16/03:30am 14.5 12.9 11.5 82 1.6 NE 11 13 6 7 1015.2 1014.8 0.0
16/03:00am 13.7 12.2 10.5 81 1.7 NE 9 11 5 6 1015.4 1015.0 0.0
16/02:30am 13.9 12.3 10.1 78 2.0 NE 9 13 5 7 1015.5 1015.1 0.0
16/02:00am 13.9 12.7 9.7 76 2.2 NE 6 9 3 5 1015.6 1015.2 0.0
16/01:30am 14.4 12.2 9.4 72 2.6 NE 11 13 6 7 1015.7 1015.3 0.0
16/01:00am 15.2 12.7 9.8 70 2.8 NE 13 15 7 8 1015.9 1015.5 0.0
16/12:30am 15.1 12.8 9.0 67 3.1 NE 11 15 6 8 1015.9 1015.5 0.0
16/12:00am 16.3 13.9 9.9 66 3.4 ENE 13 17 7 9 1015.9 1015.5 0.0
 
Date/Time
EST
Temp
°C
App
Temp
°C
Dew
Point
°C
Rel
Hum
%
Delta-T
°C
Wind Press
QNH
hPa
Press
MSL
hPa
Rain since
9am
mm
Dir  Spd
km/h
Gust
km/h
Spd
kts
Gust
kts
15/11:30pm 16.5 13.9 9.2 62 3.8 ENE 13 15 7 8 1016.1 1015.7 0.0
15/11:00pm 16.9 14.4 8.3 57 4.4 E 11 13 6 7 1016.2 1015.8 0.0
15/10:30pm 17.5 14.8 7.5 52 5.1 E 11 11 6 6 1016.3 1015.9 0.0
15/10:00pm 18.0 15.2 7.1 49 5.5 E 11 11 6 6 1016.3 1015.9 0.0
15/09:30pm 19.5 17.2 7.3 45 6.3 E 9 13 5 7 1016.3 1015.9 0.0
15/09:00pm 19.8 16.6 6.9 43 6.6 NNE 13 17 7 9 1016.1 1015.7 0.0
15/08:30pm 19.2 15.7 5.6 41 6.7 N 13 17 7 9 1015.7 1015.3 0.0
15/08:00pm 20.1 16.9 5.0 37 7.4 NE 11 15 6 8 1015.4 1015.0 0.0
15/07:30pm 21.2 17.9 4.7 34 8.1 NE 11 11 6 6 1015.3 1014.9 0.0
15/07:00pm 22.1 19.2 4.7 32 8.6 NNE 9 11 5 6 1015.3 1014.9 0.0
15/06:30pm 23.7 20.8 4.6 29 9.6 ENE 9 9 5 5 1015.0 1014.5 0.0
15/06:00pm 25.5 22.9 4.0 25 10.8 ENE 7 9 4 5 1015.0 1014.5 0.0
15/05:30pm 27.9 25.4 3.6 21 12.3 ENE 6 7 3 4 1014.8 1014.3 0.0
15/05:00pm 29.2 25.9 2.5 18 13.4 NE 9 13 5 7 1014.6 1014.1 0.0
15/04:30pm 29.8 26.1 2.1 17 13.8 NNE 11 19 6 10 1014.4 1013.9 0.0
15/04:00pm 29.7 26.1 2.9 18 13.5 ENE 11 19 6 10 1014.4 1013.9 0.0
15/03:30pm 30.3 27.0 2.5 17 14.0 NNE 9 17 5 9 1014.4 1013.9 0.0
15/03:00pm 30.6 26.6 2.8 17 14.1 N 13 20 7 11 1014.7 1014.2 0.0
15/02:30pm 30.3 26.5 4.1 19 13.6 ENE 13 26 7 14 1015.0 1014.5 0.0
15/02:00pm 30.3 25.9 4.9 20 13.3 ENE 17 28 9 15 1015.3 1014.9 0.0
15/01:30pm 30.6 27.4 5.1 20 13.4 N 11 19 6 10 1015.7 1015.3 0.0
15/01:00pm 29.1 25.5 5.2 22 12.5 N 13 24 7 13 1016.2 1015.8 0.0
15/12:30pm 29.0 26.5 6.4 24 12.1 WNW 9 17 5 9 1016.9 1016.5 0.0
15/12:00pm 29.0 26.7 7.6 26 11.6 NW 9 15 5 8 1017.6 1017.2 0.0
15/11:30am 27.8 24.8 7.6 28 10.9 NNW 13 19 7 10 1018.2 1017.8 0.0
15/11:00am 27.0 24.8 8.0 30 10.3 NNW 9 17 5 9 1018.8 1018.4 0.0
15/10:30am 25.6 24.0 8.6 34 9.3 WNW 7 15 4 8 1019.6 1019.2 0.0
15/10:00am 25.0 23.4 8.9 36 8.8 WNW 7 15 4 8 1020.0 1019.6 0.0
15/09:30am 24.2 21.9 9.0 38 8.3 NW 11 17 6 9 1020.1 1019.7 0.0
15/09:00am 23.0 22.0 9.0 41 7.5 NW 4 9 2 5 1020.3 1019.9 0.0
15/08:30am 21.8 21.0 10.9 50 6.1 ENE 6 9 3 5 1020.1 1019.7 0.0
15/08:00am 18.3 18.7 11.1 63 3.9 CALM 0 4 0 2 1019.9 1019.5 0.0
15/07:30am 14.8 13.7 10.6 76 2.2 SSW 7 9 4 5 1019.6 1019.2 0.0
15/07:00am 11.6 9.2 8.6 82 1.5 SSW 11 11 6 6 1019.1 1018.7 0.0
15/06:30am 11.2 9.2 8.6 84 1.3 SSW 9 11 5 6 1018.8 1018.4 0.0
15/06:00am 11.1 8.9 8.0 81 1.5 S 9 11 5 6 1018.5 1018.1 0.0
15/05:30am 11.3 9.2 8.3 82 1.5 S 9 11 5 6 1018.2 1017.8 0.0
15/05:00am 11.6 9.6 8.6 82 1.5 S 9 11 5 6 1017.9 1017.5 0.0
15/04:30am 11.9 9.8 8.4 79 1.7 SE 9 9 5 5 1017.6 1017.2 0.0
15/04:00am 12.5 10.9 8.6 77 2.0 SE 7 9 4 5 1017.4 1017.0 0.0
15/03:30am 12.7 11.0 8.4 75 2.2 SSE 7 11 4 6 1017.3 1016.9 0.0
15/03:00am 13.4 12.3 8.3 71 2.6 SSE 4 6 2 3 1017.5 1017.1 0.0
15/02:30am 15.4 13.6 9.5 68 3.1 SSE 9 11 5 6 1017.9 1017.5 0.0
15/02:00am 16.3 13.9 9.9 66 3.4 SSE 13 15 7 8 1018.2 1017.8 0.0
15/01:30am 14.8 12.4 8.7 67 3.1 ESE 11 11 6 6 1018.0 1017.6 0.0
15/01:00am 15.6 14.1 9.1 65 3.4 ESE 7 9 4 5 1017.9 1017.5 0.0
15/12:30am 14.5 12.8 7.5 63 3.5 NE 6 7 3 4 1018.0 1017.6 0.0
15/12:00am 15.3 13.9 7.3 59 4.0 NE 4 6 2 3 1018.1 1017.7 0.0
 
Date/Time
EST
Temp
°C
App
Temp
°C
Dew
Point
°C
Rel
Hum
%
Delta-T
°C
Wind Press
QNH
hPa
Press
MSL
hPa
Rain since
9am
mm
Dir  Spd
km/h
Gust
km/h
Spd
kts
Gust
kts
14/11:30pm 17.4 15.7 8.5 56 4.6 NE 7 9 4 5 1018.2 1017.8 0.0
14/11:00pm 17.4 14.9 8.0 54 4.8 ENE 11 11 6 6 1018.3 1017.9 0.0
14/10:30pm 17.9 15.4 6.7 48 5.6 E 9 11 5 6 1018.4 1018.0 0.0
14/10:00pm 17.9 15.3 6.1 46 5.8 NE 9 11 5 6 1018.4 1018.0 0.0
14/09:30pm 16.5 13.7 5.2 47 5.4 NE 9 9 5 5 1018.3 1017.9 0.0
14/09:00pm 16.7 13.7 6.2 50 5.2 S 11 13 6 7 1018.1 1017.7 0.0
14/08:30pm 17.4 16.3 5.0 44 6.0 CALM 0 0 0 0 1017.7 1017.3 0.0
14/08:00pm 18.8 17.4 3.4 36 7.3 CALM 0 0 0 0 1017.6 1017.2 0.0
14/07:30pm 20.6 19.2 3.8 33 8.1 CALM 0 0 0 0 1017.4 1017.0 0.0
14/07:00pm 22.1 20.7 3.7 30 9.0 CALM 0 0 0 0 1017.4 1017.0 0.0
14/06:30pm 22.0 19.8 3.6 30 8.9 WNW 4 7 2 4 1017.3 1016.9 0.0
14/06:00pm 24.7 21.9 3.4 25 10.5 WNW 7 9 4 5 1017.1 1016.7 0.0
14/05:30pm 27.3 24.1 3.1 21 12.1 WSW 9 11 5 6 1017.0 1016.6 0.0
14/05:00pm 28.9 25.8 3.7 20 12.8 W 9 15 5 8 1016.7 1016.3 0.0
14/04:30pm 29.1 24.0 3.1 19 13.1 W 19 26 10 14 1016.4 1016.0 0.0

Other Formats:

Comma delimited format used in spreadsheet applications
http://www.bom.gov.au/fwo/IDQ60801/IDQ60801.94398.axf

JavaScript Object Notation format (JSON) in row-major order
http://www.bom.gov.au/fwo/IDQ60801/IDQ60801.94398.json